Terminal Aerodrome Forecast
Issued by NWS

Home | Current Version | Previous Version | Text Only | Print | Product List | Glossary On
Versions: 1 2 3 4 5 6 7 8 9 10 11 12 13 14 15 16 17 18 19 20 21 22 23 24 25 26 27 28 29 30
598
FTUS41 KBUF 261120
TAFJHW
TAF
KJHW 261120Z 2612/2712 17008KT P6SM FEW100 BKN250
     FM261500 18012G20KT P6SM SCT100 OVC200
     FM261700 18012G20KT P6SM VCSH OVC045
     FM262000 21010KT 4SM SHRA VCTS SCT008 OVC015CB
     FM270000 26008KT 6SM BR VCSH BKN025
     FM270200 23010KT P6SM SCT040 BKN250
      AMD LTD TO CLD VIS AND WIND=

USA.gov is the U.S. government's official web portal to all federal, state and local government web resources and services.